Richland, New York
Current Conditions -  °F | °C
As of 3:54 PM on Monday 22 Dec 2014 (Local Time) from KFZY Reporting Station
Clear Clear  
Wind Chill: 32°   Ceiling: Unl
Heat Index: 37°   Visibility: 10mi
Dew Point: 27°   Wind: 7mph
Humidity: 67%   Direction: 120°ESE
Pressure: 30.16"   Gusts: NA
Location:  43.57°N, 76.05°W
Report Text: KFZY 222054Z AUTO 12006KT 10SM CLR 03/M03 A3016 RMK AO2 SLP218 T00281028 56008
Loading
Personal Weather Stations






























Interactive Weather Map New forecast layout! Learn more

10-Day Weather Forecast

Advertisements
Track Severe Weather on mobile